createdAt,value
2022-12-08T00:00:57.019Z,98643.00
2022-12-08T00:03:24.180Z,98628.00
2022-12-08T00:05:51.333Z,98619.00
2022-12-08T00:08:25.026Z,98622.00
2022-12-08T00:10:52.660Z,98639.00
2022-12-08T00:13:25.912Z,98582.00
2022-12-08T00:15:56.378Z,98624.00
2022-12-08T00:18:29.864Z,98596.00
2022-12-08T00:20:57.993Z,98609.00
2022-12-08T00:26:55.146Z,98613.00
2022-12-08T00:29:22.222Z,98615.00
2022-12-08T00:32:46.697Z,98589.00
2022-12-08T00:35:23.346Z,98560.00
2022-12-08T00:38:24.442Z,98570.00
2022-12-08T00:41:03.976Z,98573.00
2022-12-08T00:43:33.206Z,98608.00
2022-12-08T00:46:06.709Z,98585.00
2022-12-08T00:48:47.142Z,98597.00
2022-12-08T01:05:07.466Z,98616.00
2022-12-08T01:07:19.134Z,98553.00
2022-12-08T01:09:56.207Z,98608.00
2022-12-08T01:12:30.249Z,98571.00
2022-12-08T01:15:04.355Z,98620.00
2022-12-08T01:17:36.881Z,98634.00
2022-12-08T01:20:12.121Z,98612.00
2022-12-08T01:22:39.160Z,98612.00
2022-12-08T01:25:12.919Z,98595.00
2022-12-08T01:27:45.970Z,98613.00
2022-12-08T01:30:19.941Z,98619.00
2022-12-08T01:32:46.942Z,98620.00
2022-12-08T01:35:13.943Z,98609.00
2022-12-08T01:37:47.992Z,98613.00
2022-12-08T01:40:15.075Z,98610.00
2022-12-08T01:42:48.894Z,98625.00
2022-12-08T01:45:24.808Z,98628.00
2022-12-08T01:48:00.957Z,98610.00
2022-12-08T01:50:28.137Z,98600.00
2022-12-08T01:53:15.018Z,98610.00
2022-12-08T01:55:55.216Z,98590.00
2022-12-08T01:58:35.983Z,98581.00
2022-12-08T02:01:10.179Z,98609.00
2022-12-08T02:04:05.965Z,98602.00
2022-12-08T02:06:38.918Z,98615.00
2022-12-08T02:09:12.898Z,98581.00
2022-12-08T02:11:39.919Z,98610.00
2022-12-08T02:14:07.630Z,98580.00
2022-12-08T02:17:11.011Z,98604.00
2022-12-08T02:20:03.113Z,98615.00
2022-12-08T02:23:06.639Z,98587.00
2022-12-08T02:26:19.995Z,98607.00
2022-12-08T02:29:23.983Z,98602.00
2022-12-08T02:32:52.013Z,98606.00
2022-12-08T02:35:39.813Z,98589.00
2022-12-08T02:38:36.037Z,98591.00
2022-12-08T02:41:43.972Z,98569.00
2022-12-08T02:44:35.594Z,98594.00
2022-12-08T02:47:17.964Z,98589.00
2022-12-08T02:49:45.238Z,98571.00
2022-12-08T02:52:18.897Z,98553.00
2022-12-08T02:54:58.164Z,98582.00
2022-12-08T02:57:41.054Z,98583.00
2022-12-08T03:00:18.908Z,98577.00
2022-12-08T03:03:04.123Z,98578.00
2022-12-08T03:06:23.603Z,98534.00
2022-12-08T03:09:20.981Z,98571.00
2022-12-08T03:12:14.957Z,98553.00
2022-12-08T03:14:52.000Z,98550.00
2022-12-08T03:17:20.415Z,98563.00
2022-12-08T03:19:53.925Z,98565.00
2022-12-08T03:22:23.815Z,98555.00
2022-12-08T03:24:57.990Z,98540.00
2022-12-08T03:27:27.270Z,98555.00
2022-12-08T03:30:03.227Z,98536.00
2022-12-08T03:32:51.403Z,98555.00
2022-12-08T03:35:45.926Z,98561.00
2022-12-08T03:38:15.164Z,98556.00
2022-12-08T03:40:49.028Z,98540.00
2022-12-08T03:43:22.928Z,98538.00
2022-12-08T03:45:49.895Z,98552.00
2022-12-08T03:48:16.897Z,98562.00
2022-12-08T03:50:49.998Z,98563.00
2022-12-08T03:53:23.920Z,98529.00
2022-12-08T03:55:56.947Z,98527.00
2022-12-08T03:58:23.939Z,98538.00
2022-12-08T04:00:57.995Z,98520.00
2022-12-08T04:03:25.075Z,98509.00
2022-12-08T04:05:52.177Z,98539.00
2022-12-08T04:08:26.123Z,98526.00
2022-12-08T04:10:53.285Z,98539.00
2022-12-08T04:13:27.038Z,98509.00
2022-12-08T04:15:54.173Z,98544.00
2022-12-08T04:18:28.054Z,98536.00
2022-12-08T04:20:55.100Z,98530.00
2022-12-08T04:23:29.028Z,98537.00
2022-12-08T04:25:56.078Z,98497.00
2022-12-08T04:28:23.234Z,98515.00
2022-12-08T04:31:03.011Z,98522.00
2022-12-08T04:33:30.064Z,98531.00
2022-12-08T04:36:03.970Z,98505.00
2022-12-08T04:38:31.122Z,98504.00
2022-12-08T04:41:05.031Z,98524.00
2022-12-08T04:43:38.980Z,98510.00
2022-12-08T04:46:09.417Z,98538.00
2022-12-08T04:48:46.073Z,98517.00
2022-12-08T04:51:20.220Z,98505.00
2022-12-08T04:53:54.009Z,98513.00
2022-12-08T04:56:21.039Z,98529.00
2022-12-08T04:58:54.965Z,98536.00
2022-12-08T05:01:22.012Z,98518.00
2022-12-08T05:03:56.109Z,98537.00
2022-12-08T05:06:23.180Z,98515.00
2022-12-08T05:08:57.036Z,98497.00
2022-12-08T05:11:24.144Z,98535.00
2022-12-08T05:13:58.017Z,98486.00
2022-12-08T05:16:25.147Z,98482.00
2022-12-08T05:18:59.006Z,98524.00
2022-12-08T05:21:26.027Z,98505.00
2022-12-08T05:24:00.069Z,98522.00
2022-12-08T05:26:27.145Z,98510.00
2022-12-08T05:29:01.006Z,98509.00
2022-12-08T05:31:28.181Z,98502.00
2022-12-08T05:33:58.437Z,98504.00
2022-12-08T05:36:36.042Z,98477.00
2022-12-08T05:39:10.027Z,98482.00
2022-12-08T05:41:37.088Z,98486.00
2022-12-08T05:44:04.179Z,98488.00
2022-12-08T05:46:38.067Z,98482.00
2022-12-08T05:49:05.160Z,98512.00
2022-12-08T05:51:32.247Z,98517.00
2022-12-08T05:54:10.896Z,98475.00
2022-12-08T05:56:37.927Z,98521.00
2022-12-08T05:59:15.050Z,98519.00
2022-12-08T06:01:42.395Z,98468.00
2022-12-08T06:04:16.041Z,98498.00
2022-12-08T06:06:48.733Z,98514.00
2022-12-08T06:09:25.173Z,98507.00
2022-12-08T06:11:58.843Z,98469.00
2022-12-08T06:14:50.119Z,98463.00
2022-12-08T06:17:21.262Z,98473.00
2022-12-08T06:19:58.119Z,98517.00
2022-12-08T06:22:37.083Z,98458.00
2022-12-08T06:25:10.140Z,98480.00
2022-12-08T06:27:44.093Z,98474.00
2022-12-08T06:30:25.374Z,98469.00
2022-12-08T06:32:52.654Z,98474.00
2022-12-08T06:35:30.788Z,98513.00
2022-12-08T06:37:58.043Z,98502.00
2022-12-08T06:40:33.931Z,98472.00
2022-12-08T06:43:01.287Z,98488.00
2022-12-08T06:45:38.263Z,98476.00
2022-12-08T06:48:12.143Z,98469.00
2022-12-08T06:50:51.135Z,98463.00
2022-12-08T06:53:27.276Z,98492.00
2022-12-08T06:56:03.211Z,98522.00
2022-12-08T06:58:33.037Z,98479.00
2022-12-08T07:01:15.241Z,98472.00
2022-12-08T07:03:47.821Z,98507.00
2022-12-08T07:06:23.214Z,98505.00
2022-12-08T07:08:57.636Z,98480.00
2022-12-08T07:11:35.250Z,98487.00
2022-12-08T07:14:02.631Z,98524.00
2022-12-08T07:16:40.917Z,98471.00
2022-12-08T07:19:21.065Z,98535.00
2022-12-08T07:21:55.275Z,98483.00
2022-12-08T07:24:30.086Z,98473.00
2022-12-08T07:27:04.236Z,98474.00
2022-12-08T07:29:38.236Z,98508.00
2022-12-08T07:32:07.415Z,98478.00
2022-12-08T07:34:46.198Z,98479.00
2022-12-08T07:37:16.602Z,98483.00
2022-12-08T07:40:05.592Z,98483.00
2022-12-08T07:42:36.030Z,98480.00
2022-12-08T07:45:14.150Z,98487.00
2022-12-08T07:47:41.258Z,98494.00
2022-12-08T07:50:15.168Z,98511.00
2022-12-08T07:52:44.624Z,98477.00
2022-12-08T07:55:18.144Z,98481.00
2022-12-08T07:57:48.438Z,98508.00
2022-12-08T08:00:28.207Z,98469.00
2022-12-08T08:03:02.196Z,98462.00
2022-12-08T08:05:36.128Z,98490.00
2022-12-08T08:08:13.305Z,98463.00
2022-12-08T08:10:40.889Z,98471.00
2022-12-08T08:13:16.152Z,98493.00
2022-12-08T08:15:43.409Z,98501.00
2022-12-08T08:18:17.267Z,98488.00
2022-12-08T08:20:44.368Z,98507.00
2022-12-08T08:23:18.183Z,98522.00
2022-12-08T08:25:45.171Z,98493.00
2022-12-08T08:28:19.161Z,98491.00
2022-12-08T08:30:47.277Z,98502.00
2022-12-08T08:33:21.051Z,98482.00
2022-12-08T08:35:48.159Z,98477.00
2022-12-08T08:38:22.142Z,98514.00
2022-12-08T08:40:49.184Z,98510.00
2022-12-08T08:43:16.297Z,98515.00
2022-12-08T08:45:50.122Z,98513.00
2022-12-08T08:48:17.176Z,98511.00
2022-12-08T08:50:51.084Z,98490.00
2022-12-08T08:53:20.553Z,98491.00
2022-12-08T08:56:05.342Z,98482.00
2022-12-08T08:58:44.145Z,98492.00
2022-12-08T09:01:22.036Z,98494.00
2022-12-08T09:04:00.324Z,98481.00
2022-12-08T09:06:34.264Z,98494.00
2022-12-08T09:09:01.594Z,98513.00
2022-12-08T09:11:34.263Z,98546.00
2022-12-08T09:14:13.455Z,98508.00
2022-12-08T09:16:42.589Z,98493.00
2022-12-08T09:19:19.257Z,98490.00
2022-12-08T09:21:48.532Z,98501.00
2022-12-08T09:24:26.153Z,98509.00
2022-12-08T09:27:00.516Z,98524.00
2022-12-08T09:29:34.039Z,98502.00
2022-12-08T09:32:09.308Z,98510.00
2022-12-08T09:34:37.347Z,98526.00
2022-12-08T09:37:11.243Z,98524.00
2022-12-08T09:39:38.492Z,98504.00
2022-12-08T09:42:06.548Z,98506.00
2022-12-08T09:44:54.303Z,98497.00
2022-12-08T09:47:50.188Z,98541.00
2022-12-08T09:50:50.129Z,98525.00
2022-12-08T09:53:42.765Z,98509.00
2022-12-08T09:56:21.455Z,98550.00
2022-12-08T09:59:00.475Z,98507.00
2022-12-08T10:01:44.374Z,98509.00
2022-12-08T10:04:35.929Z,98478.00
2022-12-08T10:07:16.406Z,98479.00
2022-12-08T10:10:00.637Z,98477.00
2022-12-08T10:13:01.459Z,98520.00
2022-12-08T10:15:44.763Z,98517.00
2022-12-08T10:18:29.224Z,98495.00
2022-12-08T10:21:10.973Z,98468.00
2022-12-08T10:23:46.218Z,98486.00
2022-12-08T10:26:20.192Z,98475.00
2022-12-08T10:28:54.117Z,98494.00
2022-12-08T10:31:24.230Z,98471.00
2022-12-08T10:34:07.170Z,98488.00
2022-12-08T10:36:50.716Z,98484.00
2022-12-08T10:39:47.304Z,98489.00
2022-12-08T10:42:14.384Z,98481.00
2022-12-08T10:45:18.429Z,98481.00
2022-12-08T10:47:55.503Z,98446.00
2022-12-08T10:50:48.303Z,98480.00
2022-12-08T10:53:33.419Z,98475.00
2022-12-08T10:56:10.277Z,98467.00
2022-12-08T10:58:42.322Z,98470.00
2022-12-08T11:01:22.230Z,98461.00
2022-12-08T11:03:58.192Z,98452.00
2022-12-08T11:06:43.129Z,98431.00
2022-12-08T11:09:16.005Z,98423.00
2022-12-08T11:12:01.162Z,98411.00
2022-12-08T11:14:36.330Z,98406.00
2022-12-08T11:17:06.824Z,98443.00
2022-12-08T11:19:44.175Z,98417.00
2022-12-08T11:22:42.042Z,98418.00
2022-12-08T11:25:34.408Z,98424.00
2022-12-08T11:28:08.144Z,98403.00
2022-12-08T11:30:45.336Z,98404.00
2022-12-08T11:33:26.321Z,98410.00
2022-12-08T11:36:16.344Z,98420.00
2022-12-08T11:38:46.555Z,98421.00
2022-12-08T11:41:33.169Z,98421.00
2022-12-08T11:44:59.171Z,98428.00
2022-12-08T11:47:41.145Z,98426.00
2022-12-08T11:50:25.324Z,98386.00
2022-12-08T11:52:59.241Z,98419.00
2022-12-08T11:55:49.782Z,98418.00
2022-12-08T11:58:51.322Z,98424.00
2022-12-08T12:01:23.864Z,98416.00
2022-12-08T12:04:43.148Z,98419.00
2022-12-08T12:07:33.786Z,98407.00
2022-12-08T12:10:22.332Z,98401.00
2022-12-08T12:12:59.259Z,98369.00
2022-12-08T12:16:35.277Z,98387.00
2022-12-08T12:19:11.116Z,98392.00
2022-12-08T12:21:54.008Z,98374.00
2022-12-08T12:24:38.218Z,98387.00
2022-12-08T12:27:14.505Z,98382.00
2022-12-08T12:30:08.480Z,98370.00
2022-12-08T12:32:58.281Z,98379.00
2022-12-08T12:35:44.387Z,98387.00
2022-12-08T12:38:41.163Z,98377.00
2022-12-08T12:41:08.157Z,98369.00
2022-12-08T12:43:43.218Z,98343.00
2022-12-08T12:46:46.205Z,98370.00
2022-12-08T12:49:37.995Z,98367.00
2022-12-08T12:52:24.205Z,98365.00
2022-12-08T12:54:51.085Z,98363.00
2022-12-08T12:57:28.206Z,98366.00
2022-12-08T12:59:56.118Z,98347.00
2022-12-08T13:02:33.278Z,98346.00
2022-12-08T13:05:26.232Z,98343.00
2022-12-08T13:08:04.258Z,98326.00
2022-12-08T13:10:58.100Z,98337.00
2022-12-08T13:13:31.203Z,98334.00
2022-12-08T13:16:19.469Z,98351.00
2022-12-08T13:18:51.081Z,98338.00
2022-12-08T13:21:27.319Z,98338.00
2022-12-08T13:24:24.791Z,98339.00
2022-12-08T13:27:18.235Z,98344.00
2022-12-08T13:29:45.197Z,98343.00
2022-12-08T13:32:18.216Z,98332.00
2022-12-08T13:35:05.380Z,98290.00
2022-12-08T13:37:53.836Z,98309.00
2022-12-08T13:40:33.251Z,98296.00
2022-12-08T13:43:17.260Z,98312.00
2022-12-08T13:46:57.540Z,98327.00
2022-12-08T13:53:35.066Z,98318.00
2022-12-08T13:57:39.265Z,98312.00
2022-12-08T14:00:14.831Z,98315.00
2022-12-08T14:02:53.465Z,98273.00
2022-12-08T14:05:40.842Z,98283.00
2022-12-08T14:09:01.203Z,98300.00
2022-12-08T14:11:47.359Z,98318.00
2022-12-08T14:14:53.776Z,98311.00
2022-12-08T14:17:26.306Z,98278.00
2022-12-08T14:20:14.290Z,98302.00
2022-12-08T14:22:50.425Z,98272.00
2022-12-08T14:25:19.612Z,98287.00
2022-12-08T14:27:53.559Z,98295.00
2022-12-08T14:30:40.009Z,98310.00
2022-12-08T14:33:20.617Z,98309.00
2022-12-08T14:35:55.615Z,98290.00
2022-12-08T14:38:30.343Z,98317.00
2022-12-08T14:41:08.623Z,98348.00
2022-12-08T14:43:42.408Z,98335.00
2022-12-08T14:46:29.400Z,98312.00
2022-12-08T14:49:08.060Z,98333.00
2022-12-08T14:51:49.846Z,98310.00
2022-12-08T14:54:17.150Z,98319.00
2022-12-08T14:57:01.496Z,98321.00
2022-12-08T14:59:40.485Z,98315.00
2022-12-08T15:02:18.397Z,98312.00
2022-12-08T15:05:01.448Z,98343.00
2022-12-08T15:07:42.877Z,98342.00
2022-12-08T15:10:22.456Z,98369.00
2022-12-08T15:13:04.431Z,98336.00
2022-12-08T15:15:39.405Z,98364.00
2022-12-08T15:18:19.541Z,98358.00
2022-12-08T15:20:59.554Z,98329.00
2022-12-08T15:23:28.013Z,98325.00
2022-12-08T15:26:02.348Z,98357.00
2022-12-08T15:28:36.360Z,98335.00
2022-12-08T15:31:03.748Z,98347.00
2022-12-08T15:33:37.286Z,98330.00
2022-12-08T15:36:07.451Z,98325.00
2022-12-08T15:38:41.411Z,98283.00
2022-12-08T15:41:14.415Z,98323.00
2022-12-08T15:43:49.806Z,98322.00
2022-12-08T15:46:17.434Z,98301.00
2022-12-08T15:48:55.052Z,98328.00
2022-12-08T15:51:27.554Z,98308.00
2022-12-08T15:54:01.519Z,98306.00
2022-12-08T15:56:50.680Z,98323.00
2022-12-08T15:59:28.111Z,98325.00
2022-12-08T16:02:06.830Z,98352.00
2022-12-08T16:07:34.990Z,98318.00
2022-12-08T16:10:08.884Z,98318.00
2022-12-08T16:15:51.771Z,98323.00
2022-12-08T16:18:32.899Z,98340.00
2022-12-08T16:21:22.816Z,98311.00
2022-12-08T16:23:56.509Z,98319.00
2022-12-08T16:27:57.911Z,98316.00
2022-12-08T16:29:21.408Z,98317.00
2022-12-08T16:31:56.529Z,98316.00
2022-12-08T16:34:30.279Z,98334.00
2022-12-08T16:36:57.367Z,98319.00
2022-12-08T16:39:31.465Z,98304.00
2022-12-08T16:42:01.164Z,98319.00
2022-12-08T16:44:28.880Z,98306.00
2022-12-08T16:47:03.742Z,98341.00
2022-12-08T16:49:33.638Z,98318.00
2022-12-08T16:52:07.522Z,98311.00
2022-12-08T16:54:37.652Z,98317.00
2022-12-08T16:57:11.438Z,98321.00
2022-12-08T16:59:39.367Z,98335.00
2022-12-08T17:02:06.578Z,98335.00
2022-12-08T17:04:40.469Z,98324.00
2022-12-08T17:07:17.526Z,98309.00
2022-12-08T17:09:44.720Z,98319.00
2022-12-08T17:12:18.409Z,98305.00
2022-12-08T17:14:52.481Z,98305.00
2022-12-08T17:17:26.490Z,98335.00
2022-12-08T17:20:00.405Z,98326.00
2022-12-08T17:22:37.551Z,98326.00
2022-12-08T17:25:15.325Z,98316.00
2022-12-08T17:27:53.793Z,98327.00
2022-12-08T17:30:24.843Z,98341.00
2022-12-08T17:33:03.700Z,98317.00
2022-12-08T17:35:34.294Z,98310.00
2022-12-08T17:38:13.945Z,98319.00
2022-12-08T17:40:47.004Z,98318.00
2022-12-08T17:43:25.592Z,98315.00
2022-12-08T17:45:52.919Z,98314.00
2022-12-08T17:48:36.330Z,98317.00
2022-12-08T17:51:03.599Z,98299.00
2022-12-08T17:53:39.581Z,98349.00
2022-12-08T17:56:27.865Z,98307.00
2022-12-08T17:58:58.135Z,98344.00
2022-12-08T18:01:40.148Z,98314.00
2022-12-08T18:04:09.096Z,98301.00
2022-12-08T18:07:02.442Z,98292.00
2022-12-08T18:09:34.431Z,98285.00
2022-12-08T18:12:10.599Z,98294.00
2022-12-08T18:14:41.073Z,98307.00
2022-12-08T18:17:26.265Z,98312.00
2022-12-08T18:20:27.119Z,98332.00
2022-12-08T18:23:03.458Z,98291.00
2022-12-08T18:25:32.555Z,98315.00
2022-12-08T18:28:08.896Z,98306.00
2022-12-08T18:30:36.949Z,98279.00
2022-12-08T18:33:16.123Z,98297.00
2022-12-08T18:35:43.566Z,98284.00
2022-12-08T18:38:19.471Z,98284.00
2022-12-08T18:40:54.696Z,98335.00
2022-12-08T18:43:28.346Z,98296.00
2022-12-08T18:46:05.880Z,98290.00
2022-12-08T18:48:39.454Z,98319.00
2022-12-08T18:51:17.782Z,98323.00
2022-12-08T18:53:51.408Z,98312.00
2022-12-08T18:56:26.326Z,98313.00
2022-12-08T18:59:03.579Z,98330.00
2022-12-08T19:01:32.919Z,98327.00
2022-12-08T19:07:00.488Z,98349.00
2022-12-08T19:09:27.726Z,98318.00
2022-12-08T19:12:01.518Z,98317.00
2022-12-08T19:14:28.892Z,98289.00
2022-12-08T19:17:03.344Z,98328.00
2022-12-08T19:19:30.450Z,98278.00
2022-12-08T19:22:04.630Z,98264.00
2022-12-08T19:24:31.715Z,98296.00
2022-12-08T19:27:07.011Z,98266.00
2022-12-08T19:29:34.421Z,98268.00
2022-12-08T19:32:08.635Z,98272.00
2022-12-08T19:34:42.842Z,98275.00
2022-12-08T19:37:12.342Z,98289.00
2022-12-08T19:39:39.905Z,98294.00
2022-12-08T19:42:29.283Z,98267.00
2022-12-08T19:44:58.482Z,98271.00
2022-12-08T19:47:26.471Z,98278.00
2022-12-08T19:50:07.807Z,98283.00
2022-12-08T19:53:47.925Z,98253.00
2022-12-08T20:00:55.576Z,98260.00
2022-12-08T20:03:25.142Z,98300.00
2022-12-08T20:05:56.520Z,98295.00
2022-12-08T20:08:32.427Z,98251.00
2022-12-08T20:10:59.843Z,98292.00
2022-12-08T20:13:37.479Z,98234.00
2022-12-08T20:16:06.177Z,98247.00
2022-12-08T20:18:48.554Z,98253.00
2022-12-08T20:21:24.931Z,98245.00
2022-12-08T20:23:53.624Z,98241.00
2022-12-08T20:26:30.506Z,98280.00
2022-12-08T20:28:57.907Z,98266.00
2022-12-08T20:31:45.698Z,98279.00
2022-12-08T20:34:27.432Z,98286.00
2022-12-08T20:37:11.626Z,98267.00
2022-12-08T20:39:48.465Z,98283.00
2022-12-08T20:42:18.848Z,98286.00
2022-12-08T20:44:56.581Z,98296.00
2022-12-08T20:47:23.764Z,98262.00
2022-12-08T20:49:57.563Z,98266.00
2022-12-08T20:52:28.052Z,98268.00
2022-12-08T20:55:01.749Z,98268.00
2022-12-08T20:57:29.012Z,98275.00
2022-12-08T21:00:05.053Z,98274.00
2022-12-08T21:03:13.922Z,98326.00
2022-12-08T21:05:57.672Z,98271.00
2022-12-08T21:08:27.378Z,98269.00
2022-12-08T21:13:04.313Z,98289.00
2022-12-08T21:15:41.461Z,98284.00
2022-12-08T21:18:15.319Z,98300.00
2022-12-08T21:20:43.088Z,98282.00
2022-12-08T21:23:19.303Z,98279.00
2022-12-08T21:25:49.681Z,98291.00
2022-12-08T21:28:17.219Z,98295.00
2022-12-08T21:30:53.369Z,98296.00
2022-12-08T21:33:20.942Z,98274.00
2022-12-08T21:35:53.189Z,98308.00
2022-12-08T21:38:34.501Z,98291.00
2022-12-08T21:41:23.339Z,98282.00
2022-12-08T21:43:54.840Z,98275.00
2022-12-08T21:46:28.611Z,98313.00
2022-12-08T21:48:56.213Z,98334.00
2022-12-08T21:51:32.234Z,98303.00
2022-12-08T21:54:06.418Z,98313.00
2022-12-08T21:56:35.835Z,98301.00
2022-12-08T21:59:10.680Z,98339.00
2022-12-08T22:01:47.456Z,98335.00
2022-12-08T22:04:18.239Z,98303.00
2022-12-08T22:06:45.689Z,98289.00
2022-12-08T22:09:23.707Z,98307.00
2022-12-08T22:11:51.145Z,98300.00
2022-12-08T22:14:25.397Z,98290.00
2022-12-08T22:16:59.328Z,98295.00
2022-12-08T22:19:27.121Z,98292.00
2022-12-08T22:22:03.455Z,98305.00
2022-12-08T22:24:31.376Z,98296.00
2022-12-08T22:27:05.569Z,98319.00
2022-12-08T22:29:37.623Z,98305.00
2022-12-08T22:32:12.436Z,98319.00
2022-12-08T22:34:59.463Z,98339.00
2022-12-08T22:37:28.043Z,98280.00
2022-12-08T22:40:02.381Z,98317.00
2022-12-08T22:42:37.466Z,98307.00
2022-12-08T22:45:24.820Z,98323.00
2022-12-08T22:47:58.310Z,98291.00
2022-12-08T22:50:25.497Z,98295.00
2022-12-08T22:53:01.415Z,98291.00
2022-12-08T22:55:31.770Z,98258.00
2022-12-08T22:57:59.005Z,98257.00
2022-12-08T23:00:44.025Z,98278.00
2022-12-08T23:03:14.476Z,98264.00
2022-12-08T23:05:59.475Z,98279.00
2022-12-08T23:08:33.728Z,98265.00
2022-12-08T23:11:17.385Z,98281.00
2022-12-08T23:13:52.665Z,98255.00
2022-12-08T23:16:20.878Z,98268.00
2022-12-08T23:18:55.454Z,98252.00
2022-12-08T23:21:27.102Z,98267.00
2022-12-08T23:25:05.674Z,98313.00
2022-12-08T23:28:37.576Z,98318.00
2022-12-08T23:31:21.528Z,98321.00
2022-12-08T23:33:55.537Z,98294.00
2022-12-08T23:36:23.101Z,98307.00
2022-12-08T23:38:50.136Z,98295.00
2022-12-08T23:41:23.561Z,98286.00
2022-12-08T23:43:58.333Z,98298.00
2022-12-08T23:46:25.712Z,98268.00
2022-12-08T23:48:56.094Z,98233.00
2022-12-08T23:51:29.495Z,98259.00
2022-12-08T23:54:03.535Z,98250.00
2022-12-08T23:56:33.765Z,98295.00
2022-12-08T23:59:08.432Z,98242.00
